createdAt,value
2017-06-18T10:23:53.789Z,30.00
2017-06-18T11:18:39.338Z,38.20
2017-06-18T11:21:05.893Z,34.10
2017-06-18T11:23:33.134Z,36.50
2017-06-18T11:25:59.725Z,36.50
2017-06-18T11:28:26.963Z,39.50
2017-06-18T11:30:53.513Z,39.30
2017-06-18T11:33:20.033Z,37.10
2017-06-18T11:35:46.549Z,39.60
2017-06-18T11:38:13.052Z,38.70
2017-06-18T11:40:40.658Z,36.80
2017-06-18T11:43:07.091Z,36.70
2017-06-18T11:45:33.593Z,37.10
2017-06-18T11:48:00.113Z,38.40
2017-06-18T11:50:27.929Z,37.20
2017-06-18T11:52:54.409Z,37.30
2017-06-18T11:55:20.921Z,37.90
2017-06-18T11:57:47.443Z,37.90
2017-06-18T12:00:14.069Z,35.80
2017-06-18T12:02:40.596Z,36.60
2017-06-18T12:05:07.131Z,32.50
2017-06-18T12:07:33.919Z,32.10
2017-06-18T12:10:10.645Z,32.10
2017-06-18T12:12:38.033Z,33.00
2017-06-18T12:15:05.333Z,34.70
2017-06-18T12:17:32.830Z,35.10
2017-06-18T12:19:59.358Z,35.10
2017-06-18T12:22:25.905Z,35.20
2017-06-18T12:24:53.150Z,34.60
2017-06-18T12:27:19.691Z,34.50
2017-06-18T12:29:46.289Z,36.10
2017-06-18T12:32:12.889Z,35.60
2017-06-18T12:34:39.415Z,36.40
2017-06-18T12:37:05.929Z,35.80
2017-06-18T12:39:33.197Z,33.10
2017-06-18T12:41:59.708Z,33.10
2017-06-18T12:44:26.134Z,29.40
2017-06-18T12:46:52.712Z,31.00
2017-06-18T12:49:19.255Z,31.40
2017-06-18T12:51:45.783Z,30.90
2017-06-18T12:54:12.342Z,30.90
2017-06-18T12:56:38.861Z,31.60
2017-06-18T12:59:05.364Z,32.60
2017-06-18T13:01:31.865Z,32.80
2017-06-18T13:03:58.322Z,33.50
2017-06-18T13:06:24.813Z,33.50
2017-06-18T13:08:51.385Z,34.70
2017-06-18T13:11:18.143Z,37.00
2017-06-18T13:13:44.817Z,35.90
2017-06-18T13:16:11.333Z,35.90
2017-06-18T13:18:37.825Z,35.60
2017-06-18T13:21:04.405Z,33.40
2017-06-18T13:23:30.929Z,33.90
2017-06-18T13:25:58.201Z,32.70
2017-06-18T13:28:24.805Z,32.80
2017-06-18T13:30:52.112Z,31.80
2017-06-18T13:33:18.594Z,31.80
2017-06-18T13:35:45.161Z,32.30
2017-06-18T13:38:12.445Z,33.60
2017-06-18T13:40:38.961Z,32.70
2017-06-18T13:43:06.189Z,33.10
2017-06-18T13:45:33.037Z,33.00
2017-06-18T13:47:59.596Z,33.70
2017-06-18T13:50:26.117Z,32.30
2017-06-18T13:52:52.596Z,31.00
2017-06-18T13:55:19.077Z,31.90
2017-06-18T13:57:45.565Z,35.40
2017-06-18T14:00:12.048Z,31.90
2017-06-18T14:02:38.586Z,32.20
2017-06-18T14:05:05.090Z,33.20
2017-06-18T14:07:31.583Z,34.10
2017-06-18T14:09:58.157Z,32.40
2017-06-18T14:12:24.669Z,33.70
2017-06-18T14:14:51.166Z,33.80
2017-06-18T14:17:17.718Z,30.30
2017-06-18T14:19:44.217Z,33.90
2017-06-18T14:22:10.684Z,32.80
2017-06-18T14:24:37.208Z,31.40
2017-06-18T14:27:03.706Z,33.40
2017-06-18T14:29:30.185Z,33.00
2017-06-18T14:31:57.041Z,32.60
2017-06-18T14:34:23.565Z,31.20
2017-06-18T14:36:50.120Z,31.50
2017-06-18T14:39:17.131Z,30.10
2017-06-18T14:41:43.430Z,30.10
2017-06-18T14:44:09.695Z,29.90
2017-06-18T14:46:36.713Z,29.80
2017-06-18T14:49:03.045Z,29.60
2017-06-18T14:51:29.321Z,30.50
2017-06-18T14:53:55.586Z,32.50
2017-06-18T14:56:21.872Z,32.80
2017-06-18T14:58:48.956Z,32.30
2017-06-18T15:01:15.285Z,32.10
2017-06-18T15:03:41.613Z,30.50
2017-06-18T15:06:07.929Z,30.10
2017-06-18T15:08:34.185Z,30.80
2017-06-18T15:11:00.494Z,30.70
2017-06-18T15:13:31.922Z,31.30
2017-06-18T15:15:58.925Z,31.70
2017-06-18T15:18:25.180Z,31.80
2017-06-18T15:20:51.525Z,32.30
2017-06-18T15:23:17.905Z,30.30
2017-06-18T15:25:44.271Z,31.80
2017-06-18T15:28:10.559Z,31.90
2017-06-18T15:30:36.817Z,33.10
2017-06-18T15:33:06.975Z,31.10
2017-06-18T15:35:33.250Z,31.60
2017-06-18T15:37:59.561Z,31.70
2017-06-18T15:40:25.857Z,32.20
2017-06-18T15:42:52.162Z,31.60
2017-06-18T15:45:18.423Z,32.00
2017-06-18T15:47:50.748Z,32.00
2017-06-18T15:50:17.090Z,32.00
2017-06-18T15:52:44.105Z,31.00
2017-06-18T15:55:10.520Z,31.00
2017-06-18T15:57:36.812Z,33.40
2017-06-18T16:00:03.193Z,32.30
2017-06-18T16:02:32.182Z,32.90
2017-06-18T16:04:58.483Z,32.60
2017-06-18T16:07:24.805Z,32.00
2017-06-18T16:09:51.163Z,31.80
2017-06-18T16:12:17.463Z,32.40
2017-06-18T16:14:43.815Z,33.10
2017-06-18T16:17:10.101Z,33.40
2017-06-18T16:19:36.429Z,33.50
2017-06-18T16:22:05.941Z,34.40
2017-06-18T16:24:32.239Z,35.10
2017-06-18T16:26:58.507Z,34.80
2017-06-18T16:29:24.816Z,34.90
2017-06-18T16:31:55.656Z,34.50
2017-06-18T16:34:21.949Z,33.40
2017-06-18T16:36:48.259Z,34.00
2017-06-18T16:39:14.877Z,35.20
2017-06-18T16:41:41.230Z,35.20
2017-06-18T16:44:07.583Z,34.60
2017-06-18T16:46:33.898Z,35.30
2017-06-18T16:49:00.298Z,34.60
2017-06-18T16:51:26.575Z,34.90
2017-06-18T16:53:52.893Z,35.70
2017-06-18T16:56:19.193Z,35.30
2017-06-18T16:58:45.483Z,35.00
2017-06-18T17:01:12.505Z,36.50
2017-06-18T17:03:38.782Z,35.80
2017-06-18T17:06:05.062Z,35.60
2017-06-18T17:08:31.414Z,36.60
2017-06-18T17:10:57.689Z,35.60
2017-06-18T17:13:24.730Z,35.70
2017-06-18T17:15:51.044Z,35.60
2017-06-18T17:18:17.365Z,36.70
2017-06-18T17:20:43.731Z,35.80
2017-06-18T17:23:10.066Z,36.50
2017-06-18T17:25:36.345Z,37.00
2017-06-18T17:28:03.017Z,36.20
2017-06-18T17:30:29.394Z,36.50
2017-06-18T17:32:55.725Z,36.00
2017-06-18T17:35:22.014Z,35.60
2017-06-18T17:37:48.317Z,36.00
2017-06-18T17:40:14.678Z,36.30
2017-06-18T17:42:41.696Z,35.90
2017-06-18T17:45:08.724Z,35.90
2017-06-18T17:47:35.017Z,35.80
2017-06-18T17:50:01.377Z,35.50
2017-06-18T17:52:28.425Z,36.40
2017-06-18T17:54:54.748Z,36.40
2017-06-18T17:57:21.426Z,37.60
2017-06-18T17:59:47.958Z,36.20
2017-06-18T18:02:14.357Z,36.00
2017-06-18T18:04:40.790Z,37.00
2017-06-18T18:07:07.150Z,37.30
2017-06-18T18:09:33.450Z,36.50
2017-06-18T18:11:59.761Z,36.50
2017-06-18T18:14:26.057Z,37.20
2017-06-18T18:17:08.001Z,37.20
2017-06-18T18:19:34.331Z,37.20
2017-06-18T18:22:00.645Z,36.60
2017-06-18T18:24:26.931Z,37.20
2017-06-18T18:26:53.230Z,37.60
2017-06-18T18:29:19.525Z,36.90
2017-06-18T18:31:47.333Z,36.60
2017-06-18T18:34:13.762Z,37.50
2017-06-18T18:36:40.115Z,36.80
2017-06-18T18:39:06.442Z,36.80
2017-06-18T18:41:32.751Z,37.00
2017-06-18T18:43:59.274Z,36.60
2017-06-18T18:46:25.594Z,37.30
2017-06-18T18:48:51.889Z,37.20
2017-06-18T18:51:18.962Z,36.60
2017-06-18T18:53:45.274Z,36.60
2017-06-18T18:56:11.610Z,37.40
2017-06-18T18:58:37.934Z,37.10
2017-06-18T19:01:04.239Z,37.10
2017-06-18T19:03:30.565Z,37.00
2017-06-18T19:05:57.029Z,37.80
2017-06-18T19:08:23.781Z,38.00
2017-06-18T19:10:50.131Z,38.10
2017-06-18T19:13:17.462Z,37.90
2017-06-18T19:15:43.782Z,37.80
2017-06-18T19:18:10.063Z,38.30
2017-06-18T19:20:36.386Z,38.20
2017-06-18T19:23:02.680Z,38.80
2017-06-18T19:25:29.000Z,38.10
2017-06-18T19:27:56.312Z,38.50
2017-06-18T19:30:22.648Z,38.20
2017-06-18T19:32:48.976Z,38.10
2017-06-18T19:35:15.902Z,38.80
2017-06-18T19:37:42.367Z,38.30
2017-06-18T19:40:08.680Z,39.30
2017-06-18T19:42:35.108Z,40.00
2017-06-18T19:45:02.361Z,40.00
2017-06-18T19:47:28.711Z,39.60
2017-06-18T19:49:55.019Z,39.40
2017-06-18T19:52:21.475Z,39.30
2017-06-18T19:54:48.548Z,39.50
2017-06-18T19:57:14.818Z,39.50
2017-06-18T19:59:41.239Z,39.70
2017-06-18T20:02:07.583Z,39.50
2017-06-18T20:04:33.905Z,39.60
2017-06-18T20:07:00.358Z,40.50
2017-06-18T20:09:26.733Z,40.40
2017-06-18T20:11:53.122Z,40.50
2017-06-18T20:14:20.250Z,41.00
2017-06-18T20:16:46.591Z,41.60
2017-06-18T20:19:12.988Z,41.30
2017-06-18T20:21:39.286Z,41.10
2017-06-18T20:24:05.618Z,41.60
2017-06-18T20:26:32.713Z,41.50
2017-06-18T20:28:59.025Z,41.30
2017-06-18T20:31:25.566Z,41.80
2017-06-18T20:33:51.901Z,41.80
2017-06-18T20:36:18.925Z,42.10
2017-06-18T20:38:45.306Z,42.10
2017-06-18T20:41:11.811Z,42.30
2017-06-18T20:43:38.177Z,42.50
2017-06-18T20:46:04.505Z,42.80
2017-06-18T20:48:30.818Z,42.80
2017-06-18T20:50:57.106Z,42.90
2017-06-18T20:53:23.369Z,43.30
2017-06-18T20:55:49.906Z,43.60
2017-06-18T20:58:16.241Z,43.50
2017-06-18T21:00:42.577Z,43.80
2017-06-18T21:03:08.866Z,43.60
2017-06-18T21:05:35.208Z,43.90
2017-06-18T21:08:01.525Z,44.20
2017-06-18T21:10:27.838Z,44.00
2017-06-18T21:12:54.128Z,44.60
2017-06-18T21:15:20.386Z,44.30
2017-06-18T21:17:46.687Z,44.40
2017-06-18T21:20:13.013Z,44.30
2017-06-18T21:22:40.038Z,44.70
2017-06-18T21:25:06.680Z,44.20
2017-06-18T21:27:32.979Z,44.00
2017-06-18T21:29:59.226Z,43.70
2017-06-18T21:32:25.532Z,44.50
2017-06-18T21:34:51.810Z,45.00
2017-06-18T21:37:18.097Z,44.50
2017-06-18T21:39:44.413Z,44.40
2017-06-18T21:42:10.654Z,44.80
2017-06-18T21:44:36.901Z,44.80
2017-06-18T21:47:03.215Z,45.00
2017-06-18T21:49:30.250Z,45.40
2017-06-18T21:51:56.518Z,45.30
2017-06-18T21:54:22.797Z,45.60
2017-06-18T21:56:49.093Z,45.60
2017-06-18T21:59:16.122Z,46.70
2017-06-18T22:01:42.421Z,46.70
2017-06-18T22:04:09.057Z,46.70
2017-06-18T22:06:36.168Z,47.50
2017-06-18T22:09:02.509Z,47.40
2017-06-18T22:11:28.825Z,47.50
2017-06-18T22:13:55.089Z,47.60
2017-06-18T22:16:21.386Z,47.40
2017-06-18T22:18:47.701Z,47.50
2017-06-18T22:21:13.969Z,47.60
2017-06-18T22:23:40.254Z,47.60
2017-06-18T22:26:06.544Z,47.70
2017-06-18T22:28:32.833Z,47.40
2017-06-18T22:30:59.119Z,47.50
2017-06-18T22:33:26.149Z,47.40
2017-06-18T22:35:52.418Z,47.60
2017-06-18T22:38:18.893Z,47.60
2017-06-18T22:40:45.178Z,47.60
2017-06-18T22:43:11.485Z,47.20
2017-06-18T22:45:37.780Z,47.50
2017-06-18T22:48:10.914Z,49.10
2017-06-18T22:50:44.092Z,49.00
2017-06-18T22:53:10.423Z,48.90
2017-06-18T22:55:36.700Z,48.60
2017-06-18T22:58:02.977Z,48.90
2017-06-18T23:00:29.273Z,49.30
2017-06-18T23:02:55.558Z,49.50
2017-06-18T23:05:21.812Z,49.90
2017-06-18T23:07:48.080Z,50.20
2017-06-18T23:10:15.129Z,50.40
2017-06-18T23:12:41.402Z,50.40
2017-06-18T23:15:07.691Z,50.80
2017-06-18T23:17:33.962Z,50.80
2017-06-18T23:20:00.285Z,50.90
2017-06-18T23:22:26.570Z,51.20
2017-06-18T23:24:52.853Z,51.40
2017-06-18T23:27:19.617Z,51.50
2017-06-18T23:29:45.949Z,51.60
2017-06-18T23:32:12.226Z,52.00
2017-06-18T23:34:38.513Z,52.20
2017-06-18T23:37:04.785Z,52.10
2017-06-18T23:39:31.790Z,52.10
2017-06-18T23:41:58.881Z,52.00
2017-06-18T23:44:25.165Z,52.10
2017-06-18T23:46:52.241Z,52.20
2017-06-18T23:49:18.496Z,52.20
2017-06-18T23:51:44.819Z,52.00
2017-06-18T23:54:11.070Z,52.50
2017-06-18T23:56:37.321Z,52.40
2017-06-18T23:59:03.579Z,52.70
